Time;durP1;ratioP1;P1;durP2;ratioP2;P2;SDS_P1;SDS_P2;PMS_P1;PMS_P2;Temp;Humidity;BMP_temperature;BMP_pressure;BME280_temperature;BME280_humidity;BME280_pressure;Samples;Min_cycle;Max_cycle;Signal;HPM_P1;HPM_P2
2022/03/13 00:02:19;;;;;;;13.20;5.95;;;3.40;40.30;;;;;;4995071;28;20155;-69
2022/03/13 00:04:49;;;;;;;15.82;6.30;;;3.40;40.60;;;;;;5020360;28;20140;-69
2022/03/13 00:07:19;;;;;;;14.30;6.38;;;3.30;41.00;;;;;;5020374;28;20033;-69
2022/03/13 00:09:49;;;;;;;15.75;6.72;;;3.30;41.20;;;;;;5020246;28;20421;-71
2022/03/13 00:12:18;;;;;;;14.50;6.55;;;3.20;40.60;;;;;;5020170;28;20030;-70
2022/03/13 00:14:44;;;;;;;15.45;6.60;;;3.20;40.70;;;;;;5020099;28;20041;-70
2022/03/13 00:17:13;;;;;;;11.68;5.53;;;3.20;40.90;;;;;;5019557;28;20103;-69
2022/03/13 00:19:39;;;;;;;12.85;6.28;;;3.10;40.50;;;;;;5020418;28;20075;-69
2022/03/13 00:22:05;;;;;;;13.15;6.43;;;3.10;41.30;;;;;;5020294;28;20136;-71
2022/03/13 00:24:32;;;;;;;12.77;6.63;;;3.10;41.20;;;;;;5024114;28;20055;-71
2022/03/13 00:27:00;;;;;;;14.18;6.63;;;3.00;42.30;;;;;;5024027;28;20036;-71
2022/03/13 00:29:28;;;;;;;13.40;6.00;;;2.90;41.50;;;;;;5024724;28;20030;-71
2022/03/13 00:31:54;;;;;;;14.43;6.18;;;2.90;41.40;;;;;;5023816;28;20064;-69
2022/03/13 00:34:20;;;;;;;14.43;6.57;;;2.90;41.30;;;;;;5024207;28;20627;-71
2022/03/13 00:36:45;;;;;;;14.15;6.28;;;2.90;41.00;;;;;;5023287;28;20100;-69
2022/03/13 00:39:11;;;;;;;14.90;7.60;;;2.90;40.80;;;;;;5023721;28;20947;-69
2022/03/13 00:41:38;;;;;;;12.25;6.53;;;2.90;40.80;;;;;;5023560;28;20041;-69
2022/03/13 00:44:05;;;;;;;14.80;6.53;;;2.90;40.80;;;;;;5022348;28;20039;-71
2022/03/13 00:46:31;;;;;;;14.88;5.90;;;2.90;40.40;;;;;;5023295;28;20099;-69
2022/03/13 00:48:59;;;;;;;13.02;6.80;;;2.90;40.60;;;;;;5024088;28;20036;-69
2022/03/13 00:51:24;;;;;;;14.55;6.90;;;2.90;41.00;;;;;;5023818;28;20037;-69
2022/03/13 00:53:50;;;;;;;11.57;6.00;;;2.90;40.70;;;;;;5023832;28;20040;-71
2022/03/13 00:56:16;;;;;;;12.02;5.72;;;2.90;41.90;;;;;;5023511;28;20734;-69
2022/03/13 00:58:42;;;;;;;14.57;6.75;;;2.80;41.80;;;;;;5023723;28;20103;-69
2022/03/13 01:01:10;;;;;;;12.52;5.60;;;2.80;41.90;;;;;;5023839;28;20034;-71
2022/03/13 01:03:36;;;;;;;11.27;6.05;;;2.80;40.90;;;;;;5023712;28;20032;-71
2022/03/13 01:06:06;;;;;;;12.07;5.75;;;2.80;40.40;;;;;;5022993;28;20959;-71
2022/03/13 01:08:31;;;;;;;11.98;5.80;;;2.80;41.30;;;;;;5020062;28;20786;-69
2022/03/13 01:10:58;;;;;;;13.80;5.63;;;2.90;40.60;;;;;;5023408;28;20038;-69
2022/03/13 01:13:24;;;;;;;13.10;5.82;;;2.80;40.70;;;;;;5023368;28;20049;-69
2022/03/13 01:15:55;;;;;;;13.60;6.10;;;2.80;40.70;;;;;;5022893;28;20045;-69
2022/03/13 01:18:21;;;;;;;10.90;5.53;;;2.80;40.60;;;;;;5023876;28;20035;-69
2022/03/13 01:20:47;;;;;;;12.48;5.35;;;2.70;41.00;;;;;;5023289;28;20043;-69
2022/03/13 01:23:16;;;;;;;12.02;5.65;;;2.70;40.70;;;;;;5023845;28;20084;-69
2022/03/13 01:25:42;;;;;;;13.57;5.47;;;2.70;40.30;;;;;;5019565;28;20137;-69
2022/03/13 01:28:08;;;;;;;13.10;5.90;;;2.60;40.40;;;;;;5023466;28;20892;-69
2022/03/13 01:30:33;;;;;;;11.00;5.75;;;2.60;40.30;;;;;;5021830;28;20521;-71
2022/03/13 01:33:00;;;;;;;11.50;5.72;;;2.60;40.30;;;;;;5030525;28;20037;-69
2022/03/13 01:35:26;;;;;;;13.32;5.63;;;2.60;40.30;;;;;;5022180;28;20397;-71
2022/03/13 01:37:52;;;;;;;11.32;5.60;;;2.60;40.30;;;;;;5022767;28;20029;-71
2022/03/13 01:40:24;;;;;;;13.63;6.03;;;2.60;40.00;;;;;;5023542;28;20040;-71
2022/03/13 01:42:51;;;;;;;11.07;5.40;;;2.60;40.20;;;;;;5022468;28;20129;-69
2022/03/13 01:45:19;;;;;;;13.15;6.07;;;2.60;40.00;;;;;;5018686;28;20111;-71
2022/03/13 01:47:46;;;;;;;10.27;5.60;;;2.60;40.20;;;;;;5020933;28;20025;-71
2022/03/13 01:50:14;;;;;;;15.82;6.20;;;2.60;40.30;;;;;;5022660;28;20782;-71
2022/03/13 01:52:44;;;;;;;12.88;6.43;;;2.50;40.80;;;;;;5023573;28;20140;-71
2022/03/13 01:55:10;;;;;;;11.80;6.15;;;2.40;41.40;;;;;;5022282;28;20386;-70
2022/03/13 01:57:39;;;;;;;16.70;6.00;;;2.30;41.70;;;;;;5023229;28;20878;-71
2022/03/13 02:00:08;;;;;;;12.70;6.32;;;2.30;42.20;;;;;;5036213;28;20572;-71
2022/03/13 02:02:44;;;;;;;;;;;2.20;42.70;;;;;;5023784;28;20107;-71
2022/03/13 02:05:25;;;;;;;15.18;6.03;;;2.20;43.00;;;;;;5021824;28;19913;-71
2022/03/13 02:07:51;;;;;;;14.65;6.18;;;2.20;43.10;;;;;;5021331;28;20030;-71
2022/03/13 02:10:16;;;;;;;13.48;6.60;;;2.10;43.30;;;;;;5023000;28;20033;-71
2022/03/13 02:12:42;;;;;;;12.95;5.97;;;2.10;43.20;;;;;;5022009;28;20141;-71
2022/03/13 02:15:08;;;;;;;14.68;5.78;;;2.10;43.20;;;;;;5022425;28;20045;-71
2022/03/13 02:17:35;;;;;;;10.40;6.05;;;2.10;43.40;;;;;;5022180;28;20115;-71
2022/03/13 02:20:02;;;;;;;15.77;6.20;;;2.00;43.30;;;;;;5022953;28;20039;-71
2022/03/13 02:22:29;;;;;;;15.10;5.95;;;2.00;43.50;;;;;;5022938;28;20652;-71
2022/03/13 02:24:55;;;;;;;14.25;6.25;;;2.00;43.30;;;;;;5023120;28;20029;-70
2022/03/13 02:27:23;;;;;;;15.95;6.78;;;2.00;43.50;;;;;;5021173;28;20505;-70
2022/03/13 02:29:50;;;;;;;14.27;5.93;;;1.90;43.50;;;;;;5023082;28;20038;-70
2022/03/13 02:32:17;;;;;;;13.00;6.53;;;1.90;43.50;;;;;;5022890;28;20061;-71
2022/03/13 02:34:43;;;;;;;14.38;6.50;;;1.80;43.60;;;;;;5022589;28;20033;-70
2022/03/13 02:37:36;;;;;;;13.60;6.47;;;1.90;43.70;;;;;;5020846;28;20033;-71
2022/03/13 02:40:04;;;;;;;15.82;6.60;;;1.80;43.50;;;;;;5023185;28;20029;-71
2022/03/13 02:42:29;;;;;;;11.73;5.90;;;1.80;43.60;;;;;;5022212;28;20040;-71
2022/03/13 02:44:55;;;;;;;11.60;5.95;;;1.80;43.80;;;;;;5022368;28;20029;-70
2022/03/13 02:47:21;;;;;;;13.15;6.03;;;1.70;43.80;;;;;;5022065;28;20037;-71
2022/03/13 02:49:47;;;;;;;13.15;5.78;;;1.70;43.80;;;;;;5022216;28;20064;-71
2022/03/13 02:52:13;;;;;;;18.20;7.53;;;1.70;44.20;;;;;;5022150;28;20037;-71
2022/03/13 02:54:38;;;;;;;18.90;6.18;;;1.60;44.30;;;;;;5022553;28;20036;-71
2022/03/13 02:57:04;;;;;;;13.13;6.28;;;1.60;44.40;;;;;;5022128;28;20668;-71
2022/03/13 02:59:30;;;;;;;14.65;6.30;;;1.60;44.50;;;;;;5022952;28;20037;-71
2022/03/13 03:01:56;;;;;;;13.20;6.20;;;1.50;44.60;;;;;;5022083;28;20017;-70
2022/03/13 03:04:24;;;;;;;9.75;5.75;;;1.50;44.50;;;;;;5022276;28;20420;-70
2022/03/13 03:06:54;;;;;;;11.77;5.60;;;1.40;44.70;;;;;;5021881;28;20148;-71
2022/03/13 03:09:20;;;;;;;15.10;6.32;;;1.40;44.70;;;;;;5021883;28;20029;-71
2022/03/13 03:11:47;;;;;;;11.85;6.40;;;1.40;44.80;;;;;;5021916;28;20025;-71
2022/03/13 03:14:13;;;;;;;12.05;6.13;;;1.40;44.80;;;;;;5021491;28;20523;-71
2022/03/13 03:16:40;;;;;;;12.88;6.50;;;1.40;45.00;;;;;;5021696;28;20044;-71
2022/03/13 03:19:06;;;;;;;13.90;5.13;;;1.30;44.90;;;;;;5021514;28;20041;-71
2022/03/13 03:21:33;;;;;;;11.32;5.90;;;1.30;45.10;;;;;;5021905;28;20042;-71
2022/03/13 03:23:59;;;;;;;15.13;6.50;;;1.30;45.40;;;;;;5021787;28;20053;-71
2022/03/13 03:26:25;;;;;;;14.32;5.97;;;1.20;45.40;;;;;;5021352;28;20037;-71
2022/03/13 03:28:51;;;;;;;14.13;6.30;;;1.20;45.50;;;;;;5021615;28;20037;-71
2022/03/13 03:31:17;;;;;;;13.43;5.95;;;1.10;45.60;;;;;;5021548;28;20505;-72
2022/03/13 03:33:42;;;;;;;13.20;6.15;;;1.10;45.90;;;;;;5021435;28;20037;-71
2022/03/13 03:36:14;;;;;;;12.57;6.28;;;1.10;45.80;;;;;;5020971;28;20496;-70
2022/03/13 03:38:40;;;;;;;12.00;5.97;;;1.10;46.10;;;;;;5021520;28;20127;-71
2022/03/13 03:41:06;;;;;;;18.48;6.38;;;1.10;46.20;;;;;;5021186;28;20144;-71
2022/03/13 03:43:32;;;;;;;13.27;6.40;;;1.10;46.40;;;;;;5021020;28;20125;-71
2022/03/13 03:45:58;;;;;;;16.92;6.07;;;1.10;46.20;;;;;;5020999;28;20033;-71
2022/03/13 03:48:23;;;;;;;14.65;6.10;;;1.00;46.40;;;;;;5021173;28;20029;-71
2022/03/13 03:50:49;;;;;;;12.18;5.63;;;1.00;47.10;;;;;;5021537;28;20044;-71
2022/03/13 03:53:15;;;;;;;12.10;5.57;;;1.10;46.60;;;;;;5021290;28;20041;-71
2022/03/13 03:55:40;;;;;;;12.23;6.45;;;1.00;46.70;;;;;;5021107;28;20117;-71
2022/03/13 03:58:06;;;;;;;18.17;6.97;;;1.10;46.80;;;;;;5020674;28;20041;-71
2022/03/13 04:00:32;;;;;;;14.30;5.97;;;1.10;46.70;;;;;;5017446;28;20132;-71
2022/03/13 04:03:00;;;;;;;15.93;6.40;;;1.10;46.70;;;;;;5020806;28;20088;-71
2022/03/13 04:05:25;;;;;;;12.07;6.03;;;1.00;46.70;;;;;;5020665;28;20051;-71
2022/03/13 04:07:51;;;;;;;15.18;6.40;;;1.00;46.90;;;;;;5020884;28;20790;-71
2022/03/13 04:10:17;;;;;;;11.80;6.07;;;1.00;46.90;;;;;;5020806;28;20038;-71
2022/03/13 04:12:42;;;;;;;13.70;6.68;;;0.90;47.20;;;;;;5021059;28;20045;-70
2022/03/13 04:15:08;;;;;;;14.35;6.32;;;0.90;47.40;;;;;;5020260;28;20159;-69
2022/03/13 04:17:35;;;;;;;12.07;5.85;;;0.90;47.40;;;;;;5020770;28;20034;-69
2022/03/13 04:20:05;;;;;;;14.82;6.00;;;0.90;47.20;;;;;;5020438;28;20871;-69
2022/03/13 04:22:31;;;;;;;18.58;6.32;;;0.90;47.10;;;;;;5020792;28;20061;-69
2022/03/13 04:24:56;;;;;;;15.27;6.18;;;0.90;47.30;;;;;;5020615;28;20177;-69
2022/03/13 04:27:25;;;;;;;12.18;6.13;;;0.90;47.50;;;;;;5020675;28;20059;-69
2022/03/13 04:29:51;;;;;;;13.32;6.80;;;1.00;47.40;;;;;;5020492;28;20033;-69
2022/03/13 04:32:23;;;;;;;15.38;7.28;;;1.00;47.60;;;;;;5020089;28;20854;-70
2022/03/13 04:34:49;;;;;;;16.48;6.30;;;1.00;47.50;;;;;;5019626;28;20060;-69
2022/03/13 04:37:16;;;;;;;15.43;6.15;;;1.00;47.40;;;;;;5019987;28;20033;-70
2022/03/13 04:39:42;;;;;;;14.65;6.40;;;1.00;47.40;;;;;;5020179;28;20774;-69
2022/03/13 04:42:08;;;;;;;11.75;6.00;;;0.90;47.70;;;;;;5019611;28;20030;-71
2022/03/13 04:44:34;;;;;;;13.80;5.82;;;0.90;47.60;;;;;;5020156;28;20034;-70
2022/03/13 04:47:01;;;;;;;18.08;6.57;;;0.80;47.60;;;;;;5021669;28;20037;-69
2022/03/13 04:49:27;;;;;;;16.40;6.45;;;0.90;47.70;;;;;;5020156;28;20041;-69
2022/03/13 04:51:52;;;;;;;12.82;6.45;;;0.80;47.80;;;;;;5019610;28;20051;-70
2022/03/13 04:54:20;;;;;;;13.70;5.30;;;0.80;47.70;;;;;;5019799;28;20033;-69
2022/03/13 04:56:46;;;;;;;13.30;6.75;;;0.80;47.70;;;;;;5019795;28;20823;-70
2022/03/13 04:59:12;;;;;;;14.52;6.28;;;0.80;47.80;;;;;;5019924;28;20806;-70
2022/03/13 05:01:38;;;;;;;14.63;6.32;;;0.80;47.80;;;;;;5020011;28;20045;-69
2022/03/13 05:04:08;;;;;;;17.60;6.63;;;0.80;47.90;;;;;;5019599;28;20049;-69
2022/03/13 05:06:37;;;;;;;14.63;6.28;;;0.70;47.90;;;;;;5018226;28;20164;-69
2022/03/13 05:09:05;;;;;;;16.23;6.90;;;0.70;47.90;;;;;;5019699;28;20152;-69
2022/03/13 05:11:30;;;;;;;16.67;6.68;;;0.70;48.00;;;;;;5023897;28;20025;-70
2022/03/13 05:13:56;;;;;;;16.67;6.55;;;0.70;48.20;;;;;;5023228;28;20786;-69
2022/03/13 05:16:22;;;;;;;15.88;6.70;;;0.70;48.10;;;;;;5026251;28;20203;-69
2022/03/13 05:18:47;;;;;;;14.07;6.35;;;0.60;48.20;;;;;;5023319;28;20114;-69
2022/03/13 05:21:14;;;;;;;16.42;7.13;;;0.60;48.10;;;;;;5024327;28;20056;-70
2022/03/13 05:23:40;;;;;;;12.75;6.10;;;0.60;48.20;;;;;;5023503;28;20041;-69
2022/03/13 05:26:06;;;;;;;13.00;6.20;;;0.60;48.30;;;;;;5022640;28;20040;-70
2022/03/13 05:28:32;;;;;;;11.57;6.13;;;0.60;48.50;;;;;;5023463;28;20478;-69
2022/03/13 05:30:58;;;;;;;18.52;6.53;;;0.60;48.40;;;;;;5023244;28;20057;-70
2022/03/13 05:33:23;;;;;;;16.02;6.50;;;0.60;48.30;;;;;;5023384;28;20116;-70
2022/03/13 05:35:50;;;;;;;12.68;6.47;;;0.50;48.10;;;;;;5022557;28;20090;-70
2022/03/13 05:38:16;;;;;;;16.85;6.28;;;0.60;48.50;;;;;;5022793;28;20037;-70
2022/03/13 05:40:42;;;;;;;15.13;6.20;;;0.70;48.60;;;;;;5022285;28;20065;-70
2022/03/13 05:43:09;;;;;;;11.93;6.05;;;0.70;48.40;;;;;;5022524;28;20044;-70
2022/03/13 05:45:36;;;;;;;14.13;6.60;;;0.70;48.30;;;;;;5021949;28;20033;-69
2022/03/13 05:48:17;;;;;;;14.90;6.32;;;0.70;48.20;;;;;;5022017;28;20057;-69
2022/03/13 05:50:44;;;;;;;15.57;6.63;;;0.70;48.20;;;;;;5020904;28;20042;-69
2022/03/13 05:53:10;;;;;;;16.50;5.93;;;0.80;48.00;;;;;;5036347;28;20600;-69
2022/03/13 05:55:36;;;;;;;20.13;6.85;;;0.80;48.00;;;;;;5022305;28;20026;-69
2022/03/13 05:58:02;;;;;;;15.55;6.80;;;0.90;48.00;;;;;;5022589;28;20048;-72
2022/03/13 06:00:31;;;;;;;15.73;6.90;;;0.90;47.60;;;;;;5022986;28;20029;-69
2022/03/13 06:02:57;;;;;;;14.68;7.63;;;1.00;47.60;;;;;;5021480;28;20084;-69
2022/03/13 06:05:23;;;;;;;14.60;6.38;;;1.10;47.60;;;;;;5022752;28;20486;-71
2022/03/13 06:07:50;;;;;;;15.80;6.07;;;1.10;47.70;;;;;;5023121;28;20033;-70
2022/03/13 06:10:16;;;;;;;17.92;6.85;;;1.10;47.40;;;;;;5023705;28;20053;-71
2022/03/13 06:12:42;;;;;;;12.32;5.60;;;1.20;47.40;;;;;;5023896;28;20041;-70
2022/03/13 06:15:14;;;;;;;15.70;6.43;;;1.20;47.00;;;;;;5022637;28;20033;-69
2022/03/13 06:17:48;;;;;;;14.20;6.97;;;1.20;46.90;;;;;;5023496;28;20041;-69
2022/03/13 06:20:15;;;;;;;15.63;7.30;;;1.20;47.00;;;;;;5019713;28;20033;-69
2022/03/13 06:22:43;;;;;;;16.20;6.72;;;1.30;47.00;;;;;;5023318;28;20033;-69
2022/03/13 06:25:11;;;;;;;14.30;6.50;;;1.40;46.60;;;;;;5022744;28;20033;-69
2022/03/13 06:27:38;;;;;;;14.07;5.70;;;1.40;46.50;;;;;;5023055;28;20025;-70
2022/03/13 06:30:09;;;;;;;16.00;6.65;;;1.50;46.30;;;;;;5022461;28;20490;-70
2022/03/13 06:32:35;;;;;;;12.00;5.45;;;1.60;46.30;;;;;;5022246;28;20645;-69
2022/03/13 06:35:01;;;;;;;16.95;6.55;;;1.60;46.20;;;;;;5021659;28;20034;-70
2022/03/13 06:37:26;;;;;;;16.30;6.88;;;1.60;45.80;;;;;;5022474;28;20037;-69
2022/03/13 06:39:52;;;;;;;15.38;6.72;;;1.70;45.90;;;;;;5022738;28;20120;-69
2022/03/13 06:42:18;;;;;;;13.35;6.03;;;1.70;45.20;;;;;;5022332;28;20047;-71
2022/03/13 06:44:44;;;;;;;14.65;6.03;;;1.80;45.70;;;;;;5022085;28;20069;-69
2022/03/13 06:47:10;;;;;;;16.70;7.25;;;1.80;44.80;;;;;;5022076;28;20235;-68
2022/03/13 06:49:36;;;;;;;14.30;6.00;;;1.90;44.70;;;;;;5022660;28;20025;-70
2022/03/13 06:52:02;;;;;;;13.18;5.97;;;2.00;44.10;;;;;;5024114;28;20037;-71
2022/03/13 06:54:28;;;;;;;14.30;6.18;;;2.10;43.80;;;;;;5022825;28;20041;-70
2022/03/13 06:56:53;;;;;;;14.27;6.15;;;2.20;44.00;;;;;;5021832;28;20044;-71
2022/03/13 06:59:19;;;;;;;14.52;6.15;;;2.40;43.20;;;;;;5022136;28;20033;-69
2022/03/13 07:01:45;;;;;;;14.40;6.47;;;2.50;43.60;;;;;;5022141;28;20136;-69
2022/03/13 07:04:12;;;;;;;18.70;7.10;;;2.60;42.70;;;;;;5022410;28;20041;-71
2022/03/13 07:06:38;;;;;;;14.38;6.22;;;2.70;42.20;;;;;;5021962;28;20106;-70
2022/03/13 07:09:06;;;;;;;10.95;5.57;;;2.70;41.80;;;;;;5023371;28;20661;-70
2022/03/13 07:11:34;;;;;;;14.80;6.30;;;2.90;41.50;;;;;;5021655;28;20033;-70
2022/03/13 07:14:02;;;;;;;12.65;5.57;;;2.90;41.70;;;;;;5020961;28;20081;-70
2022/03/13 07:16:28;;;;;;;13.65;5.95;;;3.00;41.10;;;;;;5004773;28;20065;-69
2022/03/13 07:18:54;;;;;;;9.93;5.18;;;3.10;40.50;;;;;;5019997;28;20953;-71
2022/03/13 07:21:19;;;;;;;12.55;5.80;;;3.20;40.90;;;;;;5019478;28;20087;-70
2022/03/13 07:23:45;;;;;;;10.05;5.20;;;3.40;40.70;;;;;;5020702;28;20057;-68
2022/03/13 07:26:11;;;;;;;15.85;6.20;;;3.60;39.70;;;;;;5020348;28;20382;-69
2022/03/13 07:28:38;;;;;;;23.02;6.90;;;3.90;39.00;;;;;;5020482;28;20083;-68
2022/03/13 07:31:03;;;;;;;10.98;4.82;;;5.50;37.40;;;;;;5019864;28;20057;-69
2022/03/13 07:33:29;;;;;;;17.27;5.60;;;9.20;31.60;;;;;;5020317;28;20056;-68
2022/03/13 07:35:58;;;;;;;12.75;5.45;;;12.30;27.00;;;;;;5019985;28;20080;-69
2022/03/13 07:38:23;;;;;;;11.20;5.68;;;14.10;25.50;;;;;;5023394;28;20033;-75
2022/03/13 07:40:49;;;;;;;12.07;5.45;;;15.30;24.00;;;;;;5020887;28;20042;-69
2022/03/13 07:43:16;;;;;;;11.50;5.90;;;16.60;23.20;;;;;;5020519;28;20099;-69
2022/03/13 07:45:42;;;;;;;8.80;5.25;;;15.70;23.20;;;;;;5020314;28;20034;-69
2022/03/13 07:48:08;;;;;;;14.57;6.22;;;15.00;23.80;;;;;;5020690;28;20038;-69
2022/03/13 07:50:33;;;;;;;11.45;6.03;;;15.40;23.90;;;;;;5021171;28;20021;-70
2022/03/13 07:52:59;;;;;;;9.98;5.93;;;16.00;23.30;;;;;;5020462;28;20453;-69
2022/03/13 07:55:25;;;;;;;14.38;6.47;;;16.20;22.80;;;;;;5020919;28;20053;-70
2022/03/13 07:57:51;;;;;;;14.52;6.57;;;16.20;22.90;;;;;;5020036;28;20042;-70
2022/03/13 08:00:18;;;;;;;11.77;6.28;;;16.80;22.10;;;;;;5020483;28;20041;-71
2022/03/13 08:02:47;;;;;;;12.73;6.20;;;16.40;23.00;;;;;;5020363;28;20049;-71
2022/03/13 08:05:18;;;;;;;10.90;5.93;;;16.10;22.90;;;;;;5020129;28;20557;-71
2022/03/13 08:07:48;;;;;;;13.85;6.00;;;16.40;23.00;;;;;;5017354;28;20033;-71
2022/03/13 08:10:17;;;;;;;12.57;6.38;;;16.40;22.70;;;;;;5017917;28;20116;-74
2022/03/13 08:12:42;;;;;;;12.55;6.30;;;15.50;22.90;;;;;;5020681;28;20255;-70
2022/03/13 08:15:09;;;;;;;12.13;6.03;;;15.10;23.20;;;;;;5019856;28;20837;-70
2022/03/13 08:17:35;;;;;;;13.23;6.55;;;14.20;23.60;;;;;;5022440;28;20045;-70
2022/03/13 08:20:04;;;;;;;9.88;5.50;;;13.40;24.70;;;;;;5020680;28;20120;-70
2022/03/13 08:22:30;;;;;;;11.10;5.97;;;13.10;25.40;;;;;;5016008;28;20099;-70
2022/03/13 08:24:56;;;;;;;14.27;6.80;;;12.20;25.50;;;;;;5020185;28;20033;-69
2022/03/13 08:27:21;;;;;;;13.27;7.60;;;10.80;26.60;;;;;;5020235;28;20026;-70
2022/03/13 08:29:47;;;;;;;10.57;5.88;;;9.80;27.60;;;;;;5019901;28;20034;-70
2022/03/13 08:32:13;;;;;;;12.45;6.00;;;9.60;28.10;;;;;;5019481;28;20061;-70
2022/03/13 08:34:39;;;;;;;10.38;6.00;;;9.90;28.00;;;;;;5020571;28;20037;-70
2022/03/13 08:37:05;;;;;;;9.27;5.53;;;10.10;27.50;;;;;;5018739;28;20018;-69
2022/03/13 08:39:32;;;;;;;13.40;6.13;;;10.80;26.70;;;;;;5019705;28;20764;-69
2022/03/13 08:41:58;;;;;;;9.85;5.40;;;10.90;26.60;;;;;;5019089;28;20113;-69
2022/03/13 08:44:24;;;;;;;12.23;5.78;;;10.40;26.90;;;;;;5022145;28;20122;-70
2022/03/13 08:46:49;;;;;;;11.40;5.43;;;10.90;26.60;;;;;;5022329;28;20441;-70
2022/03/13 08:49:15;;;;;;;10.77;5.40;;;11.20;26.40;;;;;;5023417;28;20033;-69
2022/03/13 08:51:42;;;;;;;13.18;5.30;;;12.30;25.70;;;;;;5023387;28;20039;-70
2022/03/13 08:54:08;;;;;;;11.75;5.00;;;13.30;24.20;;;;;;5022990;28;20083;-70
2022/03/13 08:56:35;;;;;;;11.73;5.43;;;13.40;24.30;;;;;;5022974;28;20704;-70
2022/03/13 08:59:02;;;;;;;8.63;5.00;;;12.90;24.70;;;;;;5022342;28;20037;-69
2022/03/13 09:01:28;;;;;;;11.13;5.32;;;11.30;25.40;;;;;;5023576;28;20040;-69
2022/03/13 09:03:54;;;;;;;10.35;5.53;;;10.90;25.80;;;;;;5022712;28;20102;-69
2022/03/13 09:06:21;;;;;;;10.40;4.60;;;12.30;25.00;;;;;;5022472;28;20040;-69
2022/03/13 09:08:47;;;;;;;10.93;5.40;;;13.50;24.00;;;;;;5022014;28;20037;-68
2022/03/13 09:11:14;;;;;;;8.65;4.70;;;14.20;23.30;;;;;;5020022;28;20124;-70
2022/03/13 09:13:40;;;;;;;8.90;4.60;;;16.30;21.90;;;;;;5021410;28;20538;-70
2022/03/13 09:16:06;;;;;;;13.57;5.18;;;18.00;21.00;;;;;;5022774;28;20076;-70
2022/03/13 09:18:32;;;;;;;9.60;4.82;;;19.70;20.20;;;;;;5023480;28;20030;-70
2022/03/13 09:20:59;;;;;;;11.52;5.72;;;20.70;19.20;;;;;;5022806;28;20127;-70
2022/03/13 09:23:26;;;;;;;10.00;5.20;;;20.40;18.90;;;;;;5023268;28;20040;-70
2022/03/13 09:25:53;;;;;;;9.80;5.53;;;21.10;19.00;;;;;;5023631;28;20033;-70
2022/03/13 09:28:19;;;;;;;10.23;5.75;;;21.20;18.90;;;;;;5021147;28;20134;-70
2022/03/13 09:30:45;;;;;;;8.73;5.63;;;21.30;18.80;;;;;;5021950;28;20100;-70
2022/03/13 09:33:15;;;;;;;10.27;5.38;;;20.40;19.80;;;;;;5022893;28;20113;-70
2022/03/13 09:35:41;;;;;;;13.07;5.43;;;17.90;20.80;;;;;;5022339;28;20041;-69
2022/03/13 09:38:07;;;;;;;10.52;5.75;;;16.00;21.70;;;;;;5022468;28;20049;-71
2022/03/13 09:40:33;;;;;;;8.25;5.13;;;13.90;23.40;;;;;;5023146;28;20470;-70
2022/03/13 09:43:00;;;;;;;9.55;5.38;;;12.30;24.40;;;;;;5022129;28;20038;-70
2022/03/13 09:45:27;;;;;;;9.35;5.30;;;12.90;24.50;;;;;;5022215;28;20037;-70
2022/03/13 09:47:53;;;;;;;10.68;5.63;;;15.20;22.60;;;;;;5020286;28;20030;-70
2022/03/13 09:50:20;;;;;;;13.35;5.65;;;15.20;22.40;;;;;;5022172;28;20546;-70
2022/03/13 09:52:47;;;;;;;9.73;5.45;;;13.50;23.40;;;;;;5021412;28;20041;-70
2022/03/13 09:55:14;;;;;;;8.60;5.13;;;12.30;24.90;;;;;;5016849;28;20577;-70
2022/03/13 09:57:41;;;;;;;13.68;5.13;;;13.10;24.80;;;;;;5022075;28;20041;-70
2022/03/13 10:00:10;;;;;;;10.95;5.13;;;15.60;22.80;;;;;;5018971;28;20063;-70
2022/03/13 10:02:39;;;;;;;10.88;5.25;;;16.00;22.10;;;;;;5023283;28;20148;-70
2022/03/13 10:05:10;;;;;;;12.52;5.80;;;17.10;21.50;;;;;;5022762;28;20034;-70
2022/03/13 10:08:00;;;;;;;8.48;5.20;;;18.30;21.10;;;;;;5023058;28;20116;-69
2022/03/13 10:10:42;;;;;;;10.75;5.60;;;20.10;19.60;;;;;;5025502;28;20041;-69
2022/03/13 10:13:09;;;;;;;9.38;5.38;;;22.10;19.20;;;;;;5020839;28;20490;-69
2022/03/13 10:15:42;;;;;;;9.32;4.88;;;22.50;18.40;;;;;;5022206;28;20413;-72
2022/03/13 10:18:15;;;;;;;9.00;4.88;;;22.50;18.10;;;;;;5020199;28;20722;-70
2022/03/13 10:20:43;;;;;;;8.93;5.03;;;21.90;18.80;;;;;;5016565;28;20091;-70
2022/03/13 10:23:15;;;;;;;7.93;5.55;;;22.80;18.20;;;;;;5019159;28;20098;-70
2022/03/13 10:25:43;;;;;;;7.93;5.13;;;23.50;17.80;;;;;;5021668;28;20410;-69
2022/03/13 10:28:19;;;;;;;8.82;5.78;;;23.60;17.90;;;;;;5022224;28;20606;-69
2022/03/13 10:30:48;;;;;;;9.15;5.45;;;23.70;17.50;;;;;;5020729;28;20029;-70
2022/03/13 10:33:13;;;;;;;7.97;5.25;;;23.80;17.40;;;;;;5017541;28;20041;-70
2022/03/13 10:35:40;;;;;;;10.70;5.55;;;25.20;17.50;;;;;;5015184;28;20026;-70
2022/03/13 10:38:22;;;;;;;9.80;6.10;;;26.80;16.40;;;;;;5021825;28;20038;-70
2022/03/13 10:40:55;;;;;;;9.88;5.03;;;28.50;15.90;;;;;;5021088;28;20500;-68
2022/03/13 10:43:23;;;;;;;6.82;5.00;;;28.60;15.60;;;;;;5020141;28;20090;-69
2022/03/13 10:45:53;;;;;;;6.53;4.40;;;28.00;15.80;;;;;;5019540;28;20116;-69
2022/03/13 10:48:28;;;;;;;10.15;5.15;;;28.00;16.00;;;;;;5016512;28;20106;-69
2022/03/13 10:50:56;;;;;;;8.75;4.63;;;26.50;15.90;;;;;;5019338;28;20834;-69
2022/03/13 10:53:22;;;;;;;6.90;4.82;;;25.80;16.30;;;;;;5019671;28;20040;-69
2022/03/13 10:56:09;;;;;;;8.65;5.30;;;26.50;16.40;;;;;;5021554;28;20033;-69
2022/03/13 10:58:37;;;;;;;;;;;27.50;16.00;;;;;;5020683;28;20033;-68
2022/03/13 11:01:16;;;;;;;9.55;5.07;;;26.80;15.90;;;;;;5021914;28;19923;-68
2022/03/13 11:03:57;;;;;;;8.48;5.40;;;26.60;16.30;;;;;;5018887;28;20540;-68
2022/03/13 11:06:24;;;;;;;11.77;5.20;;;25.20;16.40;;;;;;5020568;28;20037;-68
2022/03/13 11:08:53;;;;;;;10.60;5.40;;;24.40;16.80;;;;;;5018963;28;20109;-67
2022/03/13 11:11:20;;;;;;;9.68;5.57;;;26.00;16.60;;;;;;5021679;28;20045;-68
2022/03/13 11:13:55;;;;;;;6.68;4.80;;;27.20;16.00;;;;;;5020456;28;20036;-67
2022/03/13 11:16:29;;;;;;;10.32;5.68;;;27.10;16.10;;;;;;5019988;28;20099;-67
2022/03/13 11:19:05;;;;;;;8.77;5.20;;;26.10;16.10;;;;;;5032485;28;20041;-67
2022/03/13 11:21:32;;;;;;;8.48;5.07;;;22.60;17.60;;;;;;5020999;28;20037;-67
2022/03/13 11:24:00;;;;;;;8.95;4.78;;;18.60;20.00;;;;;;5020973;28;20072;-67
2022/03/13 11:26:31;;;;;;;8.65;4.75;;;16.10;21.40;;;;;;5020306;28;20485;-69
2022/03/13 11:28:58;;;;;;;7.72;4.50;;;14.80;22.10;;;;;;5020631;28;20042;-69
2022/03/13 11:31:42;;;;;;;7.78;4.20;;;14.00;22.30;;;;;;5020998;28;20029;-67
2022/03/13 11:34:20;;;;;;;10.13;4.50;;;13.50;22.80;;;;;;5021026;28;20415;-69
2022/03/13 11:36:50;;;;;;;7.25;4.43;;;13.30;23.70;;;;;;5019378;28;20064;-68
2022/03/13 11:39:27;;;;;;;9.48;4.43;;;13.00;23.10;;;;;;5022445;28;20033;-68
2022/03/13 11:41:53;;;;;;;7.05;4.30;;;12.80;24.20;;;;;;5020364;28;20525;-68
2022/03/13 11:44:21;;;;;;;7.32;4.20;;;12.80;24.00;;;;;;5021238;28;20072;-68
2022/03/13 11:46:48;;;;;;;8.00;4.07;;;13.00;24.00;;;;;;5020344;28;20033;-68
2022/03/13 11:49:33;;;;;;;6.80;3.95;;;13.10;24.20;;;;;;5020785;28;20037;-68
2022/03/13 11:52:11;;;;;;;8.98;4.32;;;13.20;23.60;;;;;;5020553;28;20809;-68
2022/03/13 11:54:57;;;;;;;5.43;3.53;;;13.30;23.00;;;;;;5020667;28;20060;-68
2022/03/13 11:57:24;;;;;;;;;;;13.20;23.10;;;;;;5018725;28;20037;-69
2022/03/13 12:00:12;;;;;;;8.77;3.70;;;13.10;23.20;;;;;;5020720;28;19952;-67
2022/03/13 12:02:43;;;;;;;8.95;4.43;;;13.10;23.80;;;;;;5019881;28;20057;-69
2022/03/13 12:05:24;;;;;;;8.95;5.07;;;13.20;24.10;;;;;;5019550;28;20041;-68
2022/03/13 12:07:54;;;;;;;5.50;3.45;;;13.20;23.50;;;;;;5017870;28;20029;-69
2022/03/13 12:10:30;;;;;;;6.10;3.70;;;13.10;23.20;;;;;;5022412;28;20025;-69
2022/03/13 12:13:03;;;;;;;5.60;3.55;;;13.10;23.40;;;;;;5018555;28;20034;-68
2022/03/13 12:15:29;;;;;;;6.35;3.85;;;13.20;23.30;;;;;;5020232;28;20092;-69
2022/03/13 12:17:57;;;;;;;6.82;3.78;;;13.10;23.30;;;;;;5022350;28;20660;-69
2022/03/13 12:20:26;;;;;;;6.35;3.70;;;13.10;23.30;;;;;;5024475;28;20052;-68
2022/03/13 12:22:59;;;;;;;5.55;2.88;;;13.30;23.60;;;;;;5023955;28;20048;-69
2022/03/13 12:25:27;;;;;;;7.55;4.60;;;13.30;23.10;;;;;;5023830;28;20481;-69
2022/03/13 12:27:54;;;;;;;5.38;3.80;;;13.10;23.20;;;;;;5023999;28;20037;-69
2022/03/13 12:30:27;;;;;;;7.38;3.85;;;13.10;23.60;;;;;;5024235;28;20038;-69
2022/03/13 12:32:58;;;;;;;6.60;3.80;;;13.10;23.60;;;;;;5023292;28;20063;-68
2022/03/13 12:35:24;;;;;;;6.85;3.60;;;13.30;23.40;;;;;;5021073;28;20033;-69
2022/03/13 12:37:58;;;;;;;6.75;3.90;;;13.20;23.30;;;;;;5024616;28;20041;-69
2022/03/13 12:40:24;;;;;;;5.65;3.60;;;13.20;23.50;;;;;;5024465;28;20103;-69
2022/03/13 12:42:55;;;;;;;5.65;3.45;;;13.30;23.90;;;;;;5023661;28;20037;-68
2022/03/13 12:45:22;;;;;;;5.43;3.83;;;13.40;23.50;;;;;;5023259;28;20029;-69
2022/03/13 12:47:49;;;;;;;7.35;3.78;;;13.50;23.70;;;;;;5023814;28;20029;-69
2022/03/13 12:50:17;;;;;;;7.05;3.63;;;13.50;23.60;;;;;;5023193;28;20057;-69